Asbury, Illinois
Current Conditions -  °F | °C
As of 10:15 AM on Saturday 25 Oct 2014 (Local Time) from KCUL Reporting Station
Clear Clear  
Wind Chill: 69°   Ceiling: Unl
Heat Index: 69°   Visibility: 10mi
Dew Point: 62°   Wind: 8mph
Humidity: 78%   Direction: 280°W
Pressure: 30.03"   Gusts: NA
Location:  37.8866°N, 88.266°W
Report Text: KCUL 251515Z AUTO 28007KT 10SM CLR 20/16 A3003 RMK AO2 T02040164
Loading
Personal Weather Stations






























Interactive Weather Map
Tropical Storm Tracking
New forecast layout! Learn more

10-Day Weather Forecast

Advertisements
Track Severe Weather on mobile